Terminal Aerodrome Forecast
Issued by NWS

Home | Current Version | Previous Version | Text Only | Print | Product List | Glossary On
Versions: 1 2 3 4 5 6 7 8 9 10 11 12 13 14 15 16 17 18 19 20 21
081
FTPA31 PHFO 242028 AAB
TAFHNY
TAF AMD
PHNY 242028Z 2420/2518 16020G30KT 6SM -SHRA SCT010 BKN025
      TEMPO 2420/2422 1SM -RA BR SCT005 BKN014 OVC025
     FM250600 16011G20KT P6SM SCT010 BKN035=

USA.gov is the U.S. government's official web portal to all federal, state and local government web resources and services.